Time;durP1;ratioP1;P1;durP2;ratioP2;P2;SDS_P1;SDS_P2;PMS_P1;PMS_P2;Temp;Humidity;BMP_temperature;BMP_pressure;BME280_temperature;BME280_humidity;BME280_pressure;Samples;Min_cycle;Max_cycle;Signal;HPM_P1;HPM_P2
2023/05/02 00:00:27;;;;;;;23.25;16.77;;;11.50;99.90;;;;;;5116316;28;20610;-71
2023/05/02 00:02:53;;;;;;;25.77;17.42;;;11.50;99.90;;;;;;5117748;28;20161;-71
2023/05/02 00:05:19;;;;;;;24.25;17.35;;;11.50;99.90;;;;;;5117504;28;20234;-71
2023/05/02 00:07:45;;;;;;;25.85;16.98;;;11.40;99.90;;;;;;5117443;28;20522;-71
2023/05/02 00:10:11;;;;;;;23.05;16.92;;;11.30;99.90;;;;;;5117331;28;20177;-71
2023/05/02 00:12:37;;;;;;;23.60;16.87;;;11.30;99.90;;;;;;5117166;28;20176;-71
2023/05/02 00:15:04;;;;;;;23.08;17.63;;;11.30;99.90;;;;;;5117332;28;20229;-71
2023/05/02 00:17:29;;;;;;;22.88;18.00;;;11.30;99.90;;;;;;5115851;28;20181;-71
2023/05/02 00:19:55;;;;;;;28.30;19.65;;;11.20;99.90;;;;;;5117103;28;20271;-71
2023/05/02 00:22:21;;;;;;;29.07;19.30;;;11.10;99.90;;;;;;5117093;28;20176;-71
2023/05/02 00:24:47;;;;;;;27.60;19.08;;;11.10;1.00;;;;;;5117584;28;20191;-70
2023/05/02 00:27:13;;;;;;;25.17;19.10;;;11.10;1.00;;;;;;5117009;28;20172;-71
2023/05/02 00:29:39;;;;;;;25.58;18.30;;;11.00;1.00;;;;;;5115617;28;20257;-71
2023/05/02 00:32:05;;;;;;;26.65;18.95;;;11.00;1.00;;;;;;5115520;28;20257;-71
2023/05/02 00:34:32;;;;;;;25.42;17.80;;;10.90;1.00;;;;;;5115576;28;20176;-71
2023/05/02 00:36:58;;;;;;;24.70;19.02;;;10.90;1.00;;;;;;5114936;28;20271;-71
2023/05/02 00:39:24;;;;;;;28.10;19.63;;;10.90;1.00;;;;;;5115303;28;20555;-71
2023/05/02 00:41:58;;;;;;;26.35;19.33;;;10.90;1.00;;;;;;5115588;28;20184;-71
2023/05/02 00:44:24;;;;;;;29.00;20.67;;;10.80;7.50;;;;;;5116327;28;20167;-71
2023/05/02 00:46:51;;;;;;;31.70;21.27;;;10.80;99.90;;;;;;5115196;28;20191;-71
2023/05/02 00:49:18;;;;;;;32.42;21.42;;;10.70;99.90;;;;;;5116375;28;20199;-71
2023/05/02 00:51:43;;;;;;;32.47;22.30;;;10.70;99.90;;;;;;5115062;28;20200;-71
2023/05/02 00:54:10;;;;;;;30.85;23.13;;;10.80;99.90;;;;;;5114928;28;20173;-71
2023/05/02 00:56:36;;;;;;;36.20;23.47;;;10.80;99.90;;;;;;5116755;28;20194;-71
2023/05/02 00:59:07;;;;;;;36.77;23.57;;;10.80;99.90;;;;;;5116069;28;20653;-71
2023/05/02 01:02:20;;;;;;;32.73;23.10;;;10.80;99.90;;;;;;5116235;28;20195;-71
2023/05/02 01:05:09;;;;;;;36.22;25.08;;;10.80;1.00;;;;;;5115561;28;20204;-71
2023/05/02 01:08:01;;;;;;;39.93;26.53;;;10.80;1.00;;;;;;5116492;28;20211;-70
2023/05/02 01:10:39;;;;;;;40.27;27.50;;;10.80;1.00;;;;;;5114565;28;20547;-70
2023/05/02 01:13:32;;;;;;;53.50;33.53;;;10.90;1.00;;;;;;5116115;27;20164;-70
2023/05/02 01:16:00;;;;;;;54.27;33.97;;;10.90;99.90;;;;;;5111617;27;20271;-70
2023/05/02 01:18:31;;;;;;;60.17;34.13;;;10.90;99.90;;;;;;5115793;28;20227;-70
2023/05/02 01:21:02;;;;;;;55.80;33.53;;;10.90;99.90;;;;;;5115840;27;20164;-70
2023/05/02 01:24:15;;;;;;;56.60;35.97;;;10.90;1.00;;;;;;5114612;28;20264;-70
2023/05/02 01:26:53;;;;;;;59.37;34.53;;;10.90;1.00;;;;;;5101246;28;20211;-70
2023/05/02 01:29:21;;;;;;;60.93;32.73;;;10.90;1.00;;;;;;5115700;28;20200;-70
2023/05/02 01:31:50;;;;;;;54.20;33.83;;;10.90;1.00;;;;;;5115603;27;20789;-71
2023/05/02 01:34:20;;;;;;;59.83;35.10;;;10.90;1.00;;;;;;5115573;28;20168;-70
2023/05/02 01:36:49;;;;;;;53.87;34.27;;;10.80;1.00;;;;;;5115563;28;20193;-71
2023/05/02 01:39:24;;;;;;;60.07;35.43;;;10.80;1.00;;;;;;5115415;27;20657;-70
2023/05/02 01:41:54;;;;;;;56.03;35.07;;;10.90;99.90;;;;;;5114203;28;20206;-71
2023/05/02 01:44:23;;;;;;;55.90;34.83;;;10.80;99.90;;;;;;5115195;28;20225;-71
2023/05/02 01:46:51;;;;;;;58.40;34.50;;;10.80;1.00;;;;;;5114857;28;20346;-70
2023/05/02 01:49:18;;;;;;;52.90;33.77;;;10.80;16.60;;;;;;5114834;28;20292;-70
2023/05/02 01:51:48;;;;;;;56.47;33.07;;;10.90;1.00;;;;;;5115890;28;20566;-71
2023/05/02 01:54:16;;;;;;;54.17;33.00;;;10.90;1.00;;;;;;5115410;28;20624;-70
2023/05/02 01:56:42;;;;;;;53.23;34.03;;;10.80;1.00;;;;;;5115846;28;20259;-70
2023/05/02 01:59:12;;;;;;;56.63;35.83;;;10.80;99.90;;;;;;5114753;28;20192;-71
2023/05/02 02:01:39;;;;;;;49.83;32.70;;;10.80;99.90;;;;;;5113762;28;20196;-70
2023/05/02 02:04:07;;;;;;;61.23;36.13;;;10.80;99.90;;;;;;5114960;28;20259;-71
2023/05/02 02:06:34;;;;;;;62.20;36.20;;;10.80;99.90;;;;;;5114938;28;20180;-70
2023/05/02 02:09:00;;;;;;;62.80;39.03;;;10.90;99.90;;;;;;5115045;28;20188;-71
2023/05/02 02:11:51;;;;;;;56.73;35.30;;;10.80;99.90;;;;;;5113649;28;20252;-71
2023/05/02 02:14:23;;;;;;;56.10;35.30;;;10.90;99.90;;;;;;5114805;28;20168;-71
2023/05/02 02:16:52;;;;;;;59.67;36.50;;;10.90;99.90;;;;;;5115098;28;20152;-71
2023/05/02 02:19:19;;;;;;;58.67;36.03;;;10.90;99.90;;;;;;5114655;28;20570;-71
2023/05/02 02:21:46;;;;;;;55.80;34.27;;;10.80;1.00;;;;;;5114703;28;20176;-71
2023/05/02 02:24:14;;;;;;;58.47;34.67;;;10.90;1.00;;;;;;5113452;28;20191;-71
2023/05/02 02:26:40;;;;;;;54.30;35.30;;;10.80;99.90;;;;;;5113500;28;20180;-71
2023/05/02 02:29:05;;;;;;;56.37;37.13;;;10.80;1.00;;;;;;5113204;28;20754;-71
2023/05/02 02:31:34;;;;;;;53.37;34.10;;;10.70;99.90;;;;;;5113199;28;20282;-71
2023/05/02 02:34:00;;;;;;;51.07;33.07;;;10.70;99.90;;;;;;5114821;28;20208;-71
2023/05/02 02:36:55;;;;;;;56.03;35.73;;;10.80;99.90;;;;;;5113228;28;20203;-71
2023/05/02 02:39:21;;;;;;;56.87;34.13;;;10.70;1.00;;;;;;5114600;28;20228;-71
2023/05/02 02:41:50;;;;;;;52.73;34.47;;;10.80;83.20;;;;;;5113085;28;20284;-70
2023/05/02 02:44:40;;;;;;;50.43;32.73;;;10.70;1.00;;;;;;5114337;28;20157;-70
2023/05/02 02:47:31;;;;;;;56.77;33.50;;;10.70;42.40;;;;;;5113121;28;20204;-71
2023/05/02 02:50:15;;;;;;;52.67;34.73;;;10.70;1.00;;;;;;5112461;28;20688;-71
2023/05/02 02:53:01;;;;;;;57.20;34.57;;;10.70;1.00;;;;;;5114285;28;20165;-70
2023/05/02 02:55:37;;;;;;;60.30;36.23;;;10.50;99.90;;;;;;5114584;28;20290;-70
2023/05/02 02:58:40;;;;;;;56.37;35.27;;;10.50;1.00;;;;;;5114550;28;20196;-70
2023/05/02 03:01:10;;;;;;;54.73;34.47;;;10.50;1.00;;;;;;5090730;28;20235;-70
2023/05/02 03:03:38;;;;;;;56.37;34.43;;;10.40;99.90;;;;;;5112952;28;20184;-70
2023/05/02 03:06:04;;;;;;;59.43;35.17;;;10.40;1.00;;;;;;5114311;28;20176;-70
2023/05/02 03:08:40;;;;;;;57.13;34.93;;;10.40;1.00;;;;;;5114786;28;20211;-68
2023/05/02 03:11:07;;;;;;;55.67;33.57;;;10.30;52.60;;;;;;5114573;28;20187;-68
2023/05/02 03:13:33;;;;;;;55.43;34.07;;;10.40;99.90;;;;;;5114731;28;20664;-69
2023/05/02 03:16:28;;;;;;;51.83;34.30;;;10.40;99.90;;;;;;5113934;28;20172;-70
2023/05/02 03:18:54;;;;;;;60.17;34.93;;;10.40;1.00;;;;;;5114236;28;20192;-72
2023/05/02 03:21:20;;;;;;;54.77;32.37;;;10.40;99.90;;;;;;5114082;28;20663;-72
2023/05/02 03:23:45;;;;;;;53.37;33.50;;;10.40;99.90;;;;;;5114600;28;20592;-72
2023/05/02 03:26:11;;;;;;;56.20;34.70;;;10.40;99.90;;;;;;5114052;28;20638;-68
2023/05/02 03:28:37;;;;;;;53.20;33.43;;;10.30;99.90;;;;;;5112316;28;20192;-69
2023/05/02 03:31:02;;;;;;;55.30;32.30;;;10.30;1.00;;;;;;5113955;28;20201;-68
2023/05/02 03:33:28;;;;;;;53.17;32.10;;;10.40;1.00;;;;;;5115265;28;20528;-70
2023/05/02 03:35:54;;;;;;;48.73;30.17;;;10.40;99.90;;;;;;5113984;28;20172;-70
2023/05/02 03:38:20;;;;;;;55.47;30.73;;;10.30;99.90;;;;;;5113984;28;20189;-70
2023/05/02 03:40:45;;;;;;;51.77;29.60;;;10.40;1.00;;;;;;5112622;28;20206;-70
2023/05/02 03:43:11;;;;;;;50.23;30.63;;;10.30;1.00;;;;;;5113967;28;20176;-69
2023/05/02 03:45:37;;;;;;;50.80;29.23;;;10.30;1.00;;;;;;5112140;28;20173;-69
2023/05/02 03:48:02;;;;;;;46.70;28.73;;;10.30;1.00;;;;;;5113919;28;20202;-69
2023/05/02 03:50:28;;;;;;;49.87;28.63;;;10.30;99.90;;;;;;5113599;28;20309;-69
2023/05/02 03:52:54;;;;;;;50.43;29.67;;;10.30;99.90;;;;;;5113872;28;20185;-69
2023/05/02 03:55:20;;;;;;;45.07;28.10;;;10.30;99.90;;;;;;5112446;28;20180;-69
2023/05/02 03:57:46;;;;;;;48.97;28.73;;;10.30;99.90;;;;;;5112238;28;20180;-69
2023/05/02 04:00:12;;;;;;;51.07;29.87;;;10.20;1.00;;;;;;5112139;28;20225;-70
2023/05/02 04:02:38;;;;;;;49.13;28.43;;;10.20;99.90;;;;;;5113929;28;20200;-69
2023/05/02 04:05:04;;;;;;;52.00;28.50;;;10.20;99.90;;;;;;5113791;28;20203;-69
2023/05/02 04:07:29;;;;;;;51.90;29.80;;;10.20;99.90;;;;;;5112243;28;20302;-69
2023/05/02 04:09:55;;;;;;;47.87;28.77;;;10.20;99.90;;;;;;5114056;28;20634;-69
2023/05/02 04:12:21;;;;;;;50.13;27.13;;;10.20;99.90;;;;;;5115374;28;20283;-69
2023/05/02 04:14:47;;;;;;;45.00;26.43;;;10.20;99.90;;;;;;5117390;28;20175;-69
2023/05/02 04:17:14;;;;;;;47.43;26.43;;;10.10;99.90;;;;;;5117246;28;20177;-69
2023/05/02 04:19:40;;;;;;;46.47;25.07;;;10.20;99.90;;;;;;5117017;28;20283;-69
2023/05/02 04:22:06;;;;;;;47.43;26.33;;;10.20;99.90;;;;;;5116952;28;20256;-69
2023/05/02 04:24:31;;;;;;;39.43;23.67;;;10.20;99.90;;;;;;5115632;28;20548;-69
2023/05/02 04:26:57;;;;;;;37.03;22.60;;;10.20;99.90;;;;;;5116699;28;20176;-69
2023/05/02 04:29:23;;;;;;;38.20;22.27;;;10.20;1.00;;;;;;5115414;28;20699;-70
2023/05/02 04:31:50;;;;;;;43.87;22.23;;;10.20;99.90;;;;;;5115416;28;20197;-70
2023/05/02 04:34:15;;;;;;;36.77;20.00;;;10.20;99.90;;;;;;5116933;28;20175;-70
2023/05/02 04:36:43;;;;;;;38.90;21.93;;;10.30;99.90;;;;;;5115463;28;20172;-70
2023/05/02 04:39:09;;;;;;;31.50;19.23;;;10.30;69.40;;;;;;5116661;27;20196;-70
2023/05/02 04:41:35;;;;;;;34.67;19.00;;;10.30;99.90;;;;;;5115603;28;20180;-70
2023/05/02 04:44:01;;;;;;;34.87;19.30;;;10.30;99.90;;;;;;5116620;28;20176;-70
2023/05/02 04:46:26;;;;;;;35.30;18.33;;;10.20;1.00;;;;;;5116630;28;20532;-70
2023/05/02 04:48:53;;;;;;;34.47;18.53;;;10.20;1.00;;;;;;5115138;28;20291;-70
2023/05/02 04:51:18;;;;;;;32.37;19.10;;;10.20;99.90;;;;;;5116306;28;20199;-69
2023/05/02 04:53:44;;;;;;;32.90;19.03;;;10.20;1.00;;;;;;5115192;28;20177;-69
2023/05/02 04:56:10;;;;;;;35.17;19.03;;;10.20;99.90;;;;;;5116778;28;20221;-71
2023/05/02 04:58:36;;;;;;;34.57;20.40;;;10.20;99.90;;;;;;5116656;28;20191;-69
2023/05/02 05:01:02;;;;;;;35.87;20.90;;;10.20;99.90;;;;;;5114982;28;20196;-69
2023/05/02 05:03:30;;;;;;;36.00;20.77;;;10.30;1.00;;;;;;5115295;28;20208;-70
2023/05/02 05:05:56;;;;;;;33.83;19.60;;;10.20;1.00;;;;;;5116641;28;20702;-70
2023/05/02 05:08:22;;;;;;;34.87;19.57;;;10.20;1.00;;;;;;5116306;28;20699;-70
2023/05/02 05:10:47;;;;;;;33.43;18.77;;;10.20;86.20;;;;;;5116847;28;20270;-70
2023/05/02 05:13:13;;;;;;;32.90;19.77;;;10.20;99.90;;;;;;5117091;28;20217;-70
2023/05/02 05:15:39;;;;;;;37.70;20.13;;;10.20;99.90;;;;;;5119112;28;20536;-69
2023/05/02 05:18:05;;;;;;;33.63;19.27;;;10.10;99.90;;;;;;5119207;27;20188;-70
2023/05/02 05:20:32;;;;;;;41.17;20.70;;;10.20;99.90;;;;;;5118502;28;20181;-69
2023/05/02 05:22:58;;;;;;;33.83;19.23;;;10.20;99.90;;;;;;5117074;28;20164;-69
2023/05/02 05:25:27;;;;;;;35.30;19.87;;;10.10;99.90;;;;;;5115204;28;20666;-69
2023/05/02 05:27:55;;;;;;;40.67;20.40;;;10.10;99.90;;;;;;5116056;28;20229;-69
2023/05/02 05:30:21;;;;;;;39.80;21.80;;;10.10;99.90;;;;;;5114603;28;20562;-69
2023/05/02 05:32:47;;;;;;;37.97;21.07;;;10.00;99.90;;;;;;5115610;28;20168;-69
2023/05/02 05:35:13;;;;;;;41.93;22.03;;;10.00;99.90;;;;;;5114280;28;20187;-69
2023/05/02 05:37:38;;;;;;;35.50;21.53;;;9.90;99.90;;;;;;5114301;28;20175;-70
2023/05/02 05:40:08;;;;;;;38.33;21.73;;;9.90;99.90;;;;;;5114572;28;20192;-70
2023/05/02 05:42:34;;;;;;;36.73;22.03;;;9.90;99.90;;;;;;5115700;28;20230;-70
2023/05/02 05:45:00;;;;;;;38.63;21.87;;;9.90;99.90;;;;;;5113814;28;20176;-69
2023/05/02 05:47:25;;;;;;;38.43;21.40;;;9.90;99.90;;;;;;5115845;28;20238;-70
2023/05/02 05:49:55;;;;;;;39.97;20.90;;;9.90;99.90;;;;;;5114002;28;20290;-70
2023/05/02 05:52:21;;;;;;;45.47;23.27;;;9.90;99.90;;;;;;5115321;28;20227;-70
2023/05/02 05:54:47;;;;;;;41.70;22.37;;;9.90;99.90;;;;;;5115397;28;20175;-70
2023/05/02 05:57:13;;;;;;;38.63;21.87;;;9.90;99.90;;;;;;5113848;28;20172;-70
2023/05/02 05:59:39;;;;;;;38.83;22.13;;;9.90;99.90;;;;;;5115323;28;20321;-70
2023/05/02 06:02:05;;;;;;;36.57;21.40;;;9.90;99.90;;;;;;5115026;28;20258;-70
2023/05/02 06:04:31;;;;;;;24.83;14.13;;;9.90;99.90;;;;;;5114880;28;20199;-69
2023/05/02 06:06:56;;;;;;;23.97;12.63;;;9.70;99.90;;;;;;5113779;28;20172;-69
2023/05/02 06:09:22;;;;;;;17.27;10.67;;;9.70;99.90;;;;;;5115009;28;20193;-70
2023/05/02 06:11:48;;;;;;;15.67;10.33;;;9.70;99.90;;;;;;5114817;28;20203;-70
2023/05/02 06:14:13;;;;;;;17.60;10.07;;;9.60;99.90;;;;;;5114988;28;20636;-69
2023/05/02 06:16:39;;;;;;;17.40;10.57;;;9.60;99.90;;;;;;5113778;28;20175;-70
2023/05/02 06:19:05;;;;;;;18.47;10.83;;;9.60;99.90;;;;;;5114704;28;20184;-70
2023/05/02 06:21:31;;;;;;;14.60;9.90;;;9.60;99.90;;;;;;5114920;28;20176;-70
2023/05/02 06:23:56;;;;;;;14.57;9.13;;;9.60;99.90;;;;;;5113119;28;20214;-70
2023/05/02 06:26:22;;;;;;;14.23;8.70;;;9.60;99.90;;;;;;5116866;28;20179;-69
2023/05/02 06:28:49;;;;;;;13.93;8.33;;;9.60;99.90;;;;;;5119734;28;20192;-70
2023/05/02 06:31:15;;;;;;;13.43;8.90;;;9.70;99.90;;;;;;5122548;28;20184;-69
2023/05/02 06:33:41;;;;;;;15.20;7.97;;;9.80;99.90;;;;;;5120344;28;20177;-68
2023/05/02 06:36:07;;;;;;;12.57;8.73;;;10.00;99.90;;;;;;5137714;27;20191;-70
2023/05/02 06:38:34;;;;;;;14.23;7.83;;;10.00;99.90;;;;;;5142341;27;20282;-71
2023/05/02 06:40:59;;;;;;;15.57;7.97;;;10.20;99.90;;;;;;5141151;27;20600;-69
2023/05/02 06:43:26;;;;;;;12.23;7.57;;;10.30;99.90;;;;;;5139606;27;20175;-71
2023/05/02 06:45:54;;;;;;;11.63;7.50;;;10.20;99.90;;;;;;5137732;27;20176;-69
2023/05/02 06:48:22;;;;;;;9.77;7.10;;;10.20;1.00;;;;;;5138337;27;20196;-70
2023/05/02 06:50:53;;;;;;;10.67;7.00;;;10.10;1.00;;;;;;5141046;27;20192;-69
2023/05/02 06:53:19;;;;;;;9.97;6.97;;;10.20;99.90;;;;;;5140457;27;20167;-68
2023/05/02 06:55:45;;;;;;;11.17;6.40;;;10.20;99.90;;;;;;5133275;27;20179;-69
2023/05/02 06:58:11;;;;;;;9.13;6.97;;;10.30;99.90;;;;;;5134838;27;20187;-69
2023/05/02 07:00:37;;;;;;;10.97;6.73;;;10.40;1.00;;;;;;5133062;27;20183;-68
2023/05/02 07:03:03;;;;;;;7.73;6.23;;;10.40;99.90;;;;;;5134800;27;20204;-68
2023/05/02 07:05:29;;;;;;;7.70;6.40;;;10.40;1.00;;;;;;5122344;27;20644;-68
2023/05/02 07:07:55;;;;;;;10.63;6.70;;;10.40;1.00;;;;;;5113837;28;20168;-69
2023/05/02 07:10:21;;;;;;;9.20;6.73;;;10.40;1.00;;;;;;5113806;28;20180;-68
2023/05/02 07:12:47;;;;;;;11.77;6.87;;;10.60;1.00;;;;;;5112592;28;20177;-68
2023/05/02 07:15:13;;;;;;;11.30;6.73;;;10.70;1.00;;;;;;5113765;28;20217;-69
2023/05/02 07:17:39;;;;;;;10.27;6.73;;;10.90;1.00;;;;;;5114237;28;20229;-69
2023/05/02 07:20:06;;;;;;;10.07;6.70;;;10.90;99.90;;;;;;5114156;28;20550;-68
2023/05/02 07:22:32;;;;;;;9.13;6.60;;;10.90;99.90;;;;;;5113724;28;20168;-68
2023/05/02 07:25:00;;;;;;;11.70;6.77;;;10.80;99.90;;;;;;5113790;28;20252;-68
2023/05/02 07:27:26;;;;;;;12.50;6.63;;;10.80;1.00;;;;;;5112366;28;20184;-68
2023/05/02 07:29:52;;;;;;;8.93;6.50;;;10.90;1.00;;;;;;5113589;28;20557;-69
2023/05/02 07:32:18;;;;;;;8.27;6.17;;;10.90;99.90;;;;;;5113717;28;20196;-68
2023/05/02 07:34:44;;;;;;;10.60;6.30;;;10.90;1.00;;;;;;5113844;28;20687;-68
2023/05/02 07:37:10;;;;;;;9.77;6.43;;;10.80;1.00;;;;;;5113698;28;20233;-68
2023/05/02 07:39:36;;;;;;;9.63;6.87;;;10.80;1.00;;;;;;5113535;28;20185;-68
2023/05/02 07:42:02;;;;;;;10.10;7.30;;;10.90;99.90;;;;;;5113658;28;20641;-68
2023/05/02 07:44:28;;;;;;;13.37;7.33;;;10.90;99.90;;;;;;5113376;28;20172;-68
2023/05/02 07:46:54;;;;;;;13.03;7.13;;;10.80;1.00;;;;;;5116265;28;20667;-69
2023/05/02 07:49:20;;;;;;;12.57;7.30;;;10.80;99.90;;;;;;5117566;28;20241;-68
2023/05/02 07:51:46;;;;;;;10.10;6.37;;;10.80;99.90;;;;;;5117498;28;20192;-68
2023/05/02 07:54:19;;;;;;;7.77;6.17;;;10.90;1.00;;;;;;5117606;28;20200;-68
2023/05/02 07:56:46;;;;;;;8.60;6.20;;;10.90;99.90;;;;;;5117647;28;20164;-69
2023/05/02 07:59:12;;;;;;;9.30;6.53;;;10.80;16.20;;;;;;5117114;28;20214;-68
2023/05/02 08:01:39;;;;;;;11.53;6.73;;;10.80;1.00;;;;;;5117278;27;20637;-68
2023/05/02 08:04:05;;;;;;;9.27;6.37;;;10.70;1.00;;;;;;5117905;28;20242;-68
2023/05/02 08:06:33;;;;;;;8.40;5.53;;;10.60;1.00;;;;;;5115811;28;20656;-69
2023/05/02 08:08:59;;;;;;;7.67;5.73;;;10.60;1.00;;;;;;5117618;28;20192;-69
2023/05/02 08:11:25;;;;;;;7.83;5.60;;;10.50;99.90;;;;;;5115568;28;20203;-68
2023/05/02 08:13:53;;;;;;;6.87;5.83;;;10.50;1.00;;;;;;5117070;28;20164;-68
2023/05/02 08:16:20;;;;;;;9.03;5.47;;;10.30;1.00;;;;;;5115629;28;20180;-68
2023/05/02 08:18:46;;;;;;;7.03;4.63;;;10.10;1.00;;;;;;5115582;28;20192;-68
2023/05/02 08:21:11;;;;;;;4.50;4.10;;;9.80;1.00;;;;;;5117046;28;20229;-68
2023/05/02 08:23:39;;;;;;;6.93;4.10;;;9.60;33.60;;;;;;5116863;27;20541;-68
2023/05/02 08:26:05;;;;;;;6.13;4.40;;;9.40;21.80;;;;;;5116794;28;20173;-68
2023/05/02 08:28:31;;;;;;;8.13;4.90;;;9.30;1.00;;;;;;5117012;28;20249;-68
2023/05/02 08:30:57;;;;;;;7.03;5.37;;;9.10;1.00;;;;;;5116537;28;20208;-68
2023/05/02 08:33:23;;;;;;;8.50;5.50;;;8.90;99.90;;;;;;5115386;28;20179;-68
2023/05/02 08:35:48;;;;;;;12.50;5.60;;;8.80;1.00;;;;;;5116692;28;20777;-68
2023/05/02 08:38:14;;;;;;;8.07;5.37;;;8.70;16.20;;;;;;5116522;28;20188;-68
2023/05/02 08:40:40;;;;;;;11.20;6.50;;;8.70;99.90;;;;;;5116484;28;20667;-68
2023/05/02 08:43:06;;;;;;;9.93;5.90;;;8.60;99.90;;;;;;5116486;28;20183;-68
2023/05/02 08:45:43;;;;;;;8.67;6.20;;;8.60;99.90;;;;;;5116298;28;20236;-68
2023/05/02 08:48:15;;;;;;;12.70;6.60;;;8.60;99.90;;;;;;5116306;28;20220;-68
2023/05/02 08:50:47;;;;;;;11.60;6.67;;;8.60;99.90;;;;;;5116438;28;20193;-68
2023/05/02 08:53:13;;;;;;;11.53;7.33;;;8.60;99.90;;;;;;5115071;28;20164;-68
2023/05/02 08:55:40;;;;;;;11.57;6.87;;;8.70;99.90;;;;;;5116661;28;20211;-69
2023/05/02 08:58:08;;;;;;;10.97;6.23;;;8.80;99.90;;;;;;5114426;28;20291;-68
2023/05/02 09:00:41;;;;;;;14.60;7.00;;;9.00;99.90;;;;;;5116385;28;20184;-68
2023/05/02 09:03:32;;;;;;;13.23;5.87;;;9.10;99.90;;;;;;5117459;28;20160;-68
2023/05/02 09:06:08;;;;;;;15.43;6.83;;;9.20;99.90;;;;;;5116011;28;20729;-68
2023/05/02 09:08:35;;;;;;;14.97;6.70;;;9.20;1.00;;;;;;5116864;27;20180;-69
2023/05/02 09:11:05;;;;;;;11.10;6.63;;;9.30;1.00;;;;;;5116623;28;20204;-68
2023/05/02 09:13:33;;;;;;;16.30;7.33;;;9.30;1.00;;;;;;5116580;28;20169;-69
2023/05/02 09:16:04;;;;;;;12.60;7.40;;;9.40;1.00;;;;;;5114846;28;20172;-69
2023/05/02 09:18:35;;;;;;;10.20;6.77;;;9.60;1.00;;;;;;5116329;28;20317;-69
2023/05/02 09:21:07;;;;;;;14.87;7.27;;;9.80;1.00;;;;;;5116167;28;20168;-71
2023/05/02 09:23:50;;;;;;;11.73;6.73;;;9.90;99.90;;;;;;5116309;28;20186;-71
2023/05/02 09:26:33;;;;;;;13.43;7.33;;;10.10;99.90;;;;;;5116138;28;20156;-71
2023/05/02 09:29:05;;;;;;;10.33;6.53;;;10.30;1.00;;;;;;5115799;28;20196;-71
2023/05/02 09:31:35;;;;;;;11.23;6.27;;;10.40;99.90;;;;;;5115476;28;20207;-71
2023/05/02 09:34:15;;;;;;;11.03;6.40;;;10.30;1.00;;;;;;5116033;28;20233;-71
2023/05/02 09:36:43;;;;;;;13.23;6.07;;;10.20;99.90;;;;;;5116273;28;20152;-71
2023/05/02 09:39:14;;;;;;;6.97;5.50;;;10.00;99.90;;;;;;5114141;28;20196;-71
2023/05/02 09:41:45;;;;;;;8.00;5.80;;;9.80;99.90;;;;;;5114193;28;20255;-71
2023/05/02 09:44:13;;;;;;;10.03;6.63;;;9.60;99.90;;;;;;5114319;28;20180;-71
2023/05/02 09:46:40;;;;;;;12.90;6.57;;;9.50;99.90;;;;;;5115308;28;20172;-71
2023/05/02 09:49:09;;;;;;;13.53;6.00;;;9.50;1.00;;;;;;5115947;28;20194;-71
2023/05/02 09:51:35;;;;;;;9.60;5.90;;;9.40;99.90;;;;;;5115206;28;20188;-71
2023/05/02 09:54:02;;;;;;;8.57;5.90;;;9.40;1.00;;;;;;5116153;28;20208;-72
2023/05/02 09:56:27;;;;;;;11.33;6.50;;;9.40;51.80;;;;;;5114380;28;20173;-71
2023/05/02 09:59:15;;;;;;;10.77;6.30;;;9.50;99.90;;;;;;5115821;28;20241;-71
2023/05/02 10:01:41;;;;;;;8.87;6.30;;;9.60;99.90;;;;;;5113860;28;20192;-71
2023/05/02 10:04:18;;;;;;;13.33;5.80;;;9.70;99.90;;;;;;5113900;28;20543;-71
2023/05/02 10:06:44;;;;;;;12.17;5.80;;;9.80;99.90;;;;;;5115134;28;20205;-71
2023/05/02 10:09:13;;;;;;;11.17;6.60;;;9.90;55.70;;;;;;5112841;28;20676;-71
2023/05/02 10:11:40;;;;;;;13.83;6.57;;;10.00;99.90;;;;;;5113614;28;20245;-71
2023/05/02 10:14:10;;;;;;;10.20;6.70;;;10.20;99.90;;;;;;5114804;28;20633;-71
2023/05/02 10:16:42;;;;;;;8.43;5.97;;;10.30;1.00;;;;;;5114661;28;20221;-71
2023/05/02 10:19:13;;;;;;;11.37;6.90;;;10.30;1.00;;;;;;5113426;28;20669;-71
2023/05/02 10:21:42;;;;;;;11.30;5.90;;;10.30;99.90;;;;;;5114824;28;20283;-71
2023/05/02 10:24:08;;;;;;;7.77;5.90;;;10.30;1.00;;;;;;5115192;28;20560;-71
2023/05/02 10:26:35;;;;;;;10.20;6.37;;;10.30;1.00;;;;;;5114585;28;20180;-71
2023/05/02 10:29:04;;;;;;;7.07;5.60;;;10.20;1.00;;;;;;5114588;28;20198;-71
2023/05/02 10:31:38;;;;;;;11.17;5.83;;;10.20;1.00;;;;;;5114299;28;20277;-71
2023/05/02 10:34:09;;;;;;;12.23;6.50;;;10.10;1.00;;;;;;5113487;28;20664;-68
2023/05/02 10:36:37;;;;;;;11.03;6.17;;;10.00;99.90;;;;;;5114495;28;20183;-68
2023/05/02 10:39:03;;;;;;;12.47;6.00;;;9.80;59.50;;;;;;5114188;28;20191;-69
2023/05/02 10:41:32;;;;;;;12.63;6.37;;;9.70;35.00;;;;;;5112977;28;20590;-68
2023/05/02 10:43:59;;;;;;;9.40;5.70;;;9.70;1.00;;;;;;5114197;28;20169;-68
2023/05/02 10:46:42;;;;;;;10.57;5.90;;;9.60;1.00;;;;;;5113926;28;20179;-69
2023/05/02 10:49:10;;;;;;;11.93;6.70;;;9.50;1.00;;;;;;5112762;28;20734;-69
2023/05/02 10:51:38;;;;;;;12.10;6.13;;;9.50;99.90;;;;;;5112800;28;20215;-69
2023/05/02 10:54:16;;;;;;;13.00;6.33;;;9.60;1.00;;;;;;5114724;28;20217;-69
2023/05/02 10:57:10;;;;;;;13.47;7.17;;;9.60;42.20;;;;;;5114108;28;20226;-69
2023/05/02 10:59:40;;;;;;;12.90;7.07;;;9.70;99.90;;;;;;5112155;28;20204;-69
2023/05/02 11:02:29;;;;;;;12.27;5.90;;;9.60;75.60;;;;;;5113902;28;20199;-69
2023/05/02 11:05:06;;;;;;;11.23;6.70;;;9.70;99.90;;;;;;5107849;27;20192;-70
2023/05/02 11:07:34;;;;;;;16.87;7.13;;;9.60;1.00;;;;;;5112626;28;20179;-70
2023/05/02 11:10:21;;;;;;;14.97;7.77;;;9.60;99.90;;;;;;5113992;28;20566;-70
2023/05/02 11:12:47;;;;;;;14.57;7.00;;;9.70;99.90;;;;;;5112974;28;20180;-70
2023/05/02 11:15:33;;;;;;;16.10;7.00;;;9.80;1.00;;;;;;5114229;28;20179;-70
2023/05/02 11:18:06;;;;;;;15.10;6.93;;;9.90;6.50;;;;;;5112104;28;20292;-70
2023/05/02 11:20:33;;;;;;;13.43;6.93;;;10.00;99.90;;;;;;5116631;28;20164;-70
2023/05/02 11:23:20;;;;;;;14.33;7.50;;;10.20;99.90;;;;;;5118112;28;20161;-70
2023/05/02 11:25:46;;;;;;;12.00;7.67;;;10.50;1.00;;;;;;5116725;28;20250;-70
2023/05/02 11:28:33;;;;;;;12.43;6.63;;;10.60;1.00;;;;;;5117979;28;20283;-70
2023/05/02 11:30:59;;;;;;;11.75;6.03;;;10.70;1.00;;;;;;5117523;28;20251;-70
2023/05/02 11:33:27;;;;;;;12.00;6.37;;;10.60;1.00;;;;;;5116658;28;20580;-70
2023/05/02 11:35:55;;;;;;;18.03;6.10;;;10.70;1.00;;;;;;5118021;28;20204;-70
2023/05/02 11:38:22;;;;;;;13.27;6.53;;;10.60;1.00;;;;;;5116468;28;20219;-70
2023/05/02 11:40:56;;;;;;;12.67;5.90;;;10.50;99.90;;;;;;5118020;28;20172;-70
2023/05/02 11:43:24;;;;;;;13.20;6.10;;;10.30;1.00;;;;;;5118204;28;20560;-69
2023/05/02 11:45:50;;;;;;;10.47;5.93;;;10.20;91.10;;;;;;5117517;28;20653;-70
2023/05/02 11:48:18;;;;;;;16.20;7.47;;;10.20;99.90;;;;;;5117587;28;20193;-70
2023/05/02 11:50:45;;;;;;;19.30;8.67;;;10.30;99.90;;;;;;5117727;28;20200;-69
2023/05/02 11:53:12;;;;;;;15.77;8.77;;;10.20;53.40;;;;;;5116241;28;20177;-70
2023/05/02 11:55:44;;;;;;;11.47;7.37;;;10.20;1.00;;;;;;5117433;28;20191;-70
2023/05/02 11:58:19;;;;;;;13.33;6.67;;;10.30;1.00;;;;;;5117537;28;20189;-70
2023/05/02 12:00:46;;;;;;;14.53;7.53;;;10.40;99.90;;;;;;5117242;28;20188;-70
2023/05/02 12:03:47;;;;;;;9.93;6.40;;;10.40;1.00;;;;;;5117356;28;20177;-70
2023/05/02 12:06:14;;;;;;;12.93;6.43;;;10.70;1.00;;;;;;5073830;28;20239;-70
2023/05/02 12:08:43;;;;;;;14.45;6.63;;;10.80;1.00;;;;;;5096834;28;20199;-70
2023/05/02 12:11:11;;;;;;;12.77;6.40;;;11.00;1.00;;;;;;5097027;28;20245;-70
2023/05/02 12:13:44;;;;;;;14.85;5.40;;;11.10;99.90;;;;;;5096817;28;20192;-70
2023/05/02 12:16:10;;;;;;;12.80;6.22;;;11.10;99.90;;;;;;5096834;28;20240;-70
2023/05/02 12:18:36;;;;;;;14.05;6.65;;;11.20;99.90;;;;;;5096576;28;20274;-70
2023/05/02 12:21:02;;;;;;;11.45;6.82;;;11.30;99.90;;;;;;5096680;28;20183;-70
2023/05/02 12:23:28;;;;;;;11.40;6.22;;;11.10;46.00;;;;;;5097024;28;20190;-70
2023/05/02 12:25:53;;;;;;;10.27;6.20;;;11.10;99.90;;;;;;5096855;28;20182;-70
2023/05/02 12:28:22;;;;;;;11.95;6.32;;;11.20;99.90;;;;;;5096446;28;20189;-70
2023/05/02 12:30:49;;;;;;;9.70;6.10;;;11.30;99.90;;;;;;5096475;28;20197;-70
2023/05/02 12:33:16;;;;;;;14.32;7.18;;;11.50;85.80;;;;;;5096456;28;20226;-71
2023/05/02 12:35:42;;;;;;;9.63;6.67;;;11.60;36.90;;;;;;5109979;28;20173;-68
2023/05/02 12:38:26;;;;;;;14.70;6.93;;;11.70;2.40;;;;;;5116780;28;20167;-68
2023/05/02 12:40:56;;;;;;;12.38;6.90;;;12.00;1.00;;;;;;5116808;28;20185;-69
2023/05/02 12:43:22;;;;;;;9.85;5.82;;;12.20;1.00;;;;;;5117532;28;20180;-69
2023/05/02 12:45:49;;;;;;;10.57;5.90;;;12.50;1.00;;;;;;5116132;28;20257;-72
2023/05/02 12:48:23;;;;;;;8.18;5.70;;;12.80;1.00;;;;;;5115235;28;20192;-72
2023/05/02 12:50:50;;;;;;;12.32;6.68;;;12.60;1.00;;;;;;5117148;28;20570;-69